createdAt,value
2019-01-14T00:00:35.777Z,7.51
2019-01-14T00:03:04.460Z,7.46
2019-01-14T00:05:32.939Z,7.47
2019-01-14T00:08:01.456Z,7.48
2019-01-14T00:10:29.910Z,7.39
2019-01-14T00:12:58.438Z,7.39
2019-01-14T00:15:28.465Z,7.26
2019-01-14T00:17:57.004Z,7.26
2019-01-14T00:20:25.583Z,7.28
2019-01-14T00:22:54.040Z,7.22
2019-01-14T00:25:22.510Z,7.24
2019-01-14T00:27:50.952Z,7.21
2019-01-14T00:30:19.411Z,7.22
2019-01-14T00:32:47.835Z,7.14
2019-01-14T00:35:16.365Z,7.13
2019-01-14T00:37:44.797Z,7.12
2019-01-14T00:40:15.178Z,7.08
2019-01-14T00:42:44.780Z,7.08
2019-01-14T00:45:13.385Z,7.06
2019-01-14T00:47:41.973Z,7.07
2019-01-14T00:50:13.084Z,7.04
2019-01-14T00:52:41.662Z,7.07
2019-01-14T00:55:11.523Z,7.07
2019-01-14T00:57:40.256Z,7.09
2019-01-14T01:00:12.144Z,7.05
2019-01-14T01:02:40.557Z,6.97
2019-01-14T01:05:10.835Z,6.90
2019-01-14T01:07:39.295Z,6.90
2019-01-14T01:10:11.002Z,6.85
2019-01-14T01:12:41.210Z,6.78
2019-01-14T01:15:12.562Z,6.72
2019-01-14T01:17:41.203Z,6.68
2019-01-14T01:20:12.706Z,6.66
2019-01-14T01:22:41.308Z,6.65
2019-01-14T01:25:11.481Z,6.67
2019-01-14T01:27:40.096Z,6.66
2019-01-14T01:30:14.519Z,6.67
2019-01-14T01:32:44.514Z,6.60
2019-01-14T01:35:14.092Z,6.59
2019-01-14T01:37:42.608Z,6.55
2019-01-14T01:40:16.961Z,6.56
2019-01-14T01:42:45.524Z,6.56
2019-01-14T01:45:15.215Z,6.53
2019-01-14T01:47:43.784Z,6.48
2019-01-14T01:50:14.824Z,6.51
2019-01-14T01:52:43.371Z,6.47
2019-01-14T01:55:12.093Z,6.40
2019-01-14T01:57:42.310Z,6.32
2019-01-14T02:00:19.031Z,6.29
2019-01-14T02:02:47.565Z,6.21
2019-01-14T02:05:16.541Z,6.21
2019-01-14T02:07:45.208Z,6.21
2019-01-14T02:10:19.596Z,6.15
2019-01-14T02:12:48.184Z,6.18
2019-01-14T02:15:19.522Z,6.16
2019-01-14T02:17:48.147Z,6.14
2019-01-14T02:20:18.271Z,6.05
2019-01-14T02:22:46.878Z,5.97
2019-01-14T02:25:17.138Z,6.02
2019-01-14T02:27:45.629Z,5.97
2019-01-14T02:30:16.619Z,5.94
2019-01-14T02:32:45.079Z,5.91
2019-01-14T02:35:14.705Z,5.85
2019-01-14T02:37:43.296Z,5.79
2019-01-14T02:40:17.057Z,5.75
2019-01-14T02:42:45.615Z,5.75
2019-01-14T02:45:15.297Z,5.78
2019-01-14T02:47:43.825Z,5.75
2019-01-14T02:50:14.101Z,5.79
2019-01-14T02:52:44.071Z,5.74
2019-01-14T02:55:12.856Z,5.74
2019-01-14T02:57:41.347Z,5.72
2019-01-14T03:00:12.931Z,5.71
2019-01-14T03:02:41.437Z,5.72
2019-01-14T03:05:10.021Z,5.76
2019-01-14T03:07:38.608Z,5.75
2019-01-14T03:10:09.983Z,5.71
2019-01-14T03:12:38.439Z,5.75
2019-01-14T03:15:10.018Z,5.70
2019-01-14T03:17:38.469Z,5.69
2019-01-14T03:20:10.361Z,5.62
2019-01-14T03:22:38.963Z,5.66
2019-01-14T03:25:09.039Z,5.69
2019-01-14T03:27:37.519Z,5.72
2019-01-14T03:30:19.329Z,5.71
2019-01-14T03:32:50.131Z,5.73
2019-01-14T03:35:18.780Z,5.77
2019-01-14T03:37:50.505Z,5.80
2019-01-14T03:40:22.586Z,5.74
2019-01-14T03:42:51.694Z,5.70
2019-01-14T03:45:20.192Z,5.74
2019-01-14T03:47:48.735Z,5.72
2019-01-14T03:50:20.550Z,5.69
2019-01-14T03:52:49.168Z,5.70
2019-01-14T03:55:17.671Z,5.76
2019-01-14T03:57:46.322Z,5.77
2019-01-14T04:00:16.946Z,5.75
2019-01-14T04:02:45.732Z,5.68
2019-01-14T04:05:19.457Z,5.68
2019-01-14T04:07:48.728Z,5.58
2019-01-14T04:10:18.976Z,5.65
2019-01-14T04:12:47.484Z,5.66
2019-01-14T04:15:17.884Z,5.69
2019-01-14T04:17:48.032Z,5.71
2019-01-14T04:20:18.794Z,5.66
2019-01-14T04:22:47.570Z,5.65
2019-01-14T04:25:16.067Z,5.63
2019-01-14T04:27:44.771Z,5.67
2019-01-14T04:30:19.360Z,5.67
2019-01-14T04:32:48.000Z,5.68
2019-01-14T04:35:17.609Z,5.73
2019-01-14T04:37:46.089Z,5.67
2019-01-14T04:40:15.822Z,5.61
2019-01-14T04:42:44.382Z,5.53
2019-01-14T04:45:16.451Z,5.47
2019-01-14T04:47:44.943Z,5.48
2019-01-14T04:50:16.502Z,5.44
2019-01-14T04:52:44.969Z,5.43
2019-01-14T04:55:13.664Z,5.37
2019-01-14T04:57:42.189Z,5.32
2019-01-14T05:00:16.483Z,5.27
2019-01-14T05:02:44.931Z,5.33
2019-01-14T05:05:14.069Z,5.29
2019-01-14T05:07:42.626Z,5.26
2019-01-14T05:10:16.744Z,5.28
2019-01-14T05:12:45.185Z,5.30
2019-01-14T05:15:14.013Z,5.26
2019-01-14T05:17:42.717Z,5.34
2019-01-14T05:20:16.871Z,5.43
2019-01-14T05:22:45.409Z,5.49
2019-01-14T05:25:14.249Z,5.61
2019-01-14T05:27:42.637Z,5.58
2019-01-14T05:30:16.582Z,5.53
2019-01-14T05:32:45.062Z,5.44
2019-01-14T05:35:14.153Z,5.32
2019-01-14T05:37:42.659Z,5.34
2019-01-14T05:40:19.937Z,5.29
2019-01-14T05:42:48.492Z,5.13
2019-01-14T05:45:17.339Z,4.93
2019-01-14T05:47:45.761Z,4.73
2019-01-14T05:50:16.419Z,4.63
2019-01-14T05:52:45.233Z,4.61
2019-01-14T05:55:15.247Z,4.72
2019-01-14T05:57:43.863Z,4.80
2019-01-14T06:00:28.694Z,4.92
2019-01-14T06:02:57.158Z,4.94
2019-01-14T06:05:25.715Z,4.98
2019-01-14T06:07:54.241Z,5.00
2019-01-14T06:10:22.707Z,4.96
2019-01-14T06:12:51.155Z,4.94
2019-01-14T06:15:21.206Z,4.87
2019-01-14T06:17:49.918Z,4.85
2019-01-14T06:20:20.986Z,4.85
2019-01-14T06:22:49.582Z,4.90
2019-01-14T06:25:18.434Z,4.95
2019-01-14T06:27:46.912Z,4.99
2019-01-14T06:30:18.288Z,4.96
2019-01-14T06:32:46.681Z,4.86
2019-01-14T06:35:15.497Z,4.77
2019-01-14T06:37:52.096Z,4.74
2019-01-14T06:40:20.656Z,4.71
2019-01-14T06:42:49.153Z,4.65
2019-01-14T06:45:17.844Z,4.62
2019-01-14T06:47:47.182Z,4.60
2019-01-14T06:50:19.857Z,4.58
2019-01-14T06:52:48.478Z,4.60
2019-01-14T06:55:18.174Z,4.50
2019-01-14T06:57:46.811Z,4.56
2019-01-14T07:00:21.226Z,4.61
2019-01-14T07:02:51.928Z,4.59
2019-01-14T07:05:20.606Z,4.54
2019-01-14T07:07:49.217Z,4.57
2019-01-14T07:10:24.159Z,4.63
2019-01-14T07:12:52.750Z,4.60
2019-01-14T07:15:21.540Z,4.61
2019-01-14T07:17:54.528Z,4.58
2019-01-14T07:20:23.418Z,4.61
2019-01-14T07:22:51.919Z,4.62
2019-01-14T07:25:21.890Z,4.63
2019-01-14T07:27:50.371Z,4.56
2019-01-14T07:30:21.369Z,4.58
2019-01-14T07:32:49.842Z,4.59
2019-01-14T07:35:18.364Z,4.59
2019-01-14T07:37:48.832Z,4.18
2019-01-14T07:40:19.099Z,3.57
2019-01-14T07:42:50.212Z,3.45
2019-01-14T07:45:19.720Z,3.45
2019-01-14T07:47:48.335Z,3.50
2019-01-14T07:50:18.500Z,3.62
2019-01-14T07:52:48.600Z,3.67
2019-01-14T07:55:17.042Z,3.77
2019-01-14T07:57:46.573Z,3.81
2019-01-14T08:00:18.210Z,3.98
2019-01-14T08:02:46.671Z,3.99
2019-01-14T08:05:16.371Z,3.98
2019-01-14T08:07:45.464Z,4.03
2019-01-14T08:10:14.180Z,4.00
2019-01-14T08:12:42.747Z,3.91
2019-01-14T08:15:17.247Z,3.88
2019-01-14T08:17:45.772Z,3.89
2019-01-14T08:20:14.500Z,3.90
2019-01-14T08:22:43.281Z,3.95
2019-01-14T08:25:13.868Z,4.10
2019-01-14T08:27:44.034Z,4.08
2019-01-14T08:30:18.271Z,4.18
2019-01-14T08:32:46.846Z,4.15
2019-01-14T08:35:15.737Z,4.07
2019-01-14T08:37:44.250Z,4.07
2019-01-14T08:40:15.146Z,4.16
2019-01-14T08:42:43.642Z,4.26
2019-01-14T08:45:13.948Z,4.21
2019-01-14T08:47:43.297Z,4.14
2019-01-14T08:50:15.480Z,4.11
2019-01-14T08:52:43.863Z,4.13
2019-01-14T08:55:12.445Z,4.14
2019-01-14T08:57:42.490Z,4.19
2019-01-14T09:00:16.471Z,4.15
2019-01-14T09:02:45.038Z,4.14
2019-01-14T09:05:13.587Z,4.20
2019-01-14T09:07:42.124Z,4.21
2019-01-14T09:10:19.858Z,4.16
2019-01-14T09:12:48.436Z,4.22
2019-01-14T09:15:18.611Z,4.17
2019-01-14T09:17:47.669Z,4.12
2019-01-14T09:20:19.005Z,4.09
2019-01-14T09:22:47.701Z,4.01
2019-01-14T09:25:16.268Z,4.13
2019-01-14T09:27:44.719Z,4.19
2019-01-14T09:30:18.862Z,4.19
2019-01-14T09:32:47.596Z,4.17
2019-01-14T09:35:16.070Z,4.25
2019-01-14T09:37:44.606Z,4.26
2019-01-14T09:40:15.775Z,4.20
2019-01-14T09:42:45.007Z,4.11
2019-01-14T09:45:14.327Z,4.27
2019-01-14T09:47:43.033Z,4.24
2019-01-14T09:50:13.612Z,4.33
2019-01-14T09:52:42.088Z,4.27
2019-01-14T09:55:16.253Z,4.28
2019-01-14T09:57:45.256Z,4.27
2019-01-14T10:00:15.963Z,4.24
2019-01-14T10:02:44.878Z,4.20
2019-01-14T10:05:15.966Z,4.29
2019-01-14T10:07:44.754Z,4.37
2019-01-14T10:10:15.166Z,4.50
2019-01-14T10:12:43.730Z,4.51
2019-01-14T10:15:17.903Z,4.52
2019-01-14T10:17:48.153Z,4.50
2019-01-14T10:20:16.654Z,4.59
2019-01-14T10:22:45.176Z,4.66
2019-01-14T10:25:13.784Z,4.71
2019-01-14T10:27:42.368Z,4.70
2019-01-14T10:30:16.407Z,4.79
2019-01-14T10:32:44.901Z,4.71
2019-01-14T10:35:13.523Z,4.77
2019-01-14T10:37:49.447Z,4.77
2019-01-14T10:40:17.950Z,4.74
2019-01-14T10:42:46.593Z,4.75
2019-01-14T10:45:17.964Z,4.76
2019-01-14T10:47:46.504Z,4.80
2019-01-14T10:50:16.952Z,4.86
2019-01-14T10:52:45.610Z,4.84
2019-01-14T10:55:15.719Z,4.80
2019-01-14T10:57:44.745Z,4.84
2019-01-14T11:00:22.026Z,4.91
2019-01-14T11:02:50.597Z,4.91
2019-01-14T11:05:25.540Z,4.91
2019-01-14T11:07:54.077Z,4.89
2019-01-14T11:10:22.721Z,4.93
2019-01-14T11:12:51.636Z,4.94
2019-01-14T11:15:22.334Z,4.95
2019-01-14T11:17:50.991Z,4.90
2019-01-14T11:20:22.169Z,4.85
2019-01-14T11:22:52.372Z,4.89
2019-01-14T11:25:21.261Z,4.67
2019-01-14T11:27:49.871Z,4.77
2019-01-14T11:30:21.369Z,4.82
2019-01-14T11:32:49.821Z,4.82
2019-01-14T11:35:18.266Z,4.82
2019-01-14T11:37:46.782Z,4.79
2019-01-14T11:40:20.924Z,4.83
2019-01-14T11:43:11.875Z,4.82
2019-01-14T11:45:40.306Z,4.76
2019-01-14T11:48:08.891Z,4.76
2019-01-14T11:50:37.550Z,4.73
2019-01-14T11:53:06.004Z,4.66
2019-01-14T11:55:37.024Z,4.66
2019-01-14T11:58:05.668Z,4.65
2019-01-14T12:00:36.769Z,4.57
2019-01-14T12:03:05.353Z,4.46
2019-01-14T12:05:33.815Z,4.41
2019-01-14T12:08:02.418Z,4.37
2019-01-14T12:10:30.976Z,4.40
2019-01-14T12:12:59.406Z,4.39
2019-01-14T12:15:28.585Z,4.39
2019-01-14T12:17:57.109Z,4.41
2019-01-14T12:20:25.883Z,4.50
2019-01-14T12:22:54.441Z,4.58
2019-01-14T12:25:23.051Z,4.62
2019-01-14T12:27:51.581Z,4.62
2019-01-14T12:30:23.234Z,4.67
2019-01-14T12:32:51.743Z,4.63
2019-01-14T12:35:20.352Z,4.59
2019-01-14T12:37:48.832Z,4.64
2019-01-14T12:40:17.718Z,4.62
2019-01-14T12:42:46.587Z,4.63
2019-01-14T12:45:17.638Z,4.67
2019-01-14T12:47:46.317Z,4.74
2019-01-14T12:50:17.368Z,4.76
2019-01-14T12:52:45.933Z,4.69
2019-01-14T12:55:16.601Z,4.69
2019-01-14T12:57:45.244Z,4.78
2019-01-14T13:00:18.918Z,4.78
2019-01-14T13:02:47.323Z,4.83
2019-01-14T13:05:17.744Z,4.85
2019-01-14T13:07:46.348Z,4.85
2019-01-14T13:10:15.879Z,4.79
2019-01-14T13:12:44.569Z,4.84
2019-01-14T13:15:21.688Z,4.82
2019-01-14T13:17:51.846Z,4.93
2019-01-14T13:20:21.911Z,5.00
2019-01-14T13:22:50.958Z,5.04
2019-01-14T13:25:19.834Z,5.03
2019-01-14T13:27:48.513Z,4.99
2019-01-14T13:30:22.717Z,4.94
2019-01-14T13:32:51.277Z,4.62
2019-01-14T13:35:19.842Z,4.43
2019-01-14T13:37:48.993Z,4.20
2019-01-14T13:40:17.717Z,4.15
2019-01-14T13:42:46.465Z,4.28
2019-01-14T13:45:22.531Z,4.24
2019-01-14T13:47:51.235Z,4.15
2019-01-14T13:50:22.255Z,4.04
2019-01-14T13:52:50.767Z,4.04
2019-01-14T13:55:20.991Z,4.05
2019-01-14T13:57:49.660Z,3.99
2019-01-14T14:00:23.151Z,4.00
2019-01-14T14:02:51.783Z,3.92
2019-01-14T14:05:20.412Z,3.92
2019-01-14T14:07:48.893Z,3.94
2019-01-14T14:10:20.621Z,4.04
2019-01-14T14:12:49.207Z,4.00
2019-01-14T14:15:19.211Z,4.04
2019-01-14T14:17:48.162Z,4.02
2019-01-14T14:20:17.986Z,4.01
2019-01-14T14:22:46.577Z,3.99
2019-01-14T14:25:15.166Z,4.01
2019-01-14T14:27:43.790Z,4.03
2019-01-14T14:30:24.446Z,3.93
2019-01-14T14:32:53.083Z,3.93
2019-01-14T14:35:21.812Z,4.00
2019-01-14T14:37:50.389Z,3.95
2019-01-14T14:40:19.033Z,3.93
2019-01-14T14:42:47.948Z,3.93
2019-01-14T14:45:16.831Z,3.75
2019-01-14T14:47:45.404Z,3.56
2019-01-14T14:50:19.228Z,3.41
2019-01-14T14:52:48.011Z,3.33
2019-01-14T14:55:16.685Z,3.38
2019-01-14T14:57:45.497Z,3.44
2019-01-14T15:00:28.937Z,3.44
2019-01-14T15:02:57.390Z,3.40
2019-01-14T15:05:27.541Z,3.43
2019-01-14T15:07:56.089Z,3.38
2019-01-14T15:10:24.407Z,3.37
2019-01-14T15:12:52.852Z,3.33
2019-01-14T15:15:23.000Z,3.40
2019-01-14T15:17:52.072Z,3.35
2019-01-14T15:20:22.580Z,3.39
2019-01-14T15:22:53.140Z,3.38
2019-01-14T15:25:23.998Z,3.40
2019-01-14T15:27:52.886Z,3.51
2019-01-14T15:30:26.789Z,3.55
2019-01-14T15:32:58.441Z,3.55
2019-01-14T15:35:31.378Z,3.57
2019-01-14T15:38:00.497Z,3.57
2019-01-14T15:40:30.204Z,3.59
2019-01-14T15:43:04.429Z,3.58
2019-01-14T15:45:36.805Z,3.55
2019-01-14T15:48:05.974Z,3.62
2019-01-14T15:50:37.166Z,3.67
2019-01-14T15:53:06.069Z,3.70
2019-01-14T15:55:35.417Z,3.72
2019-01-14T15:58:07.593Z,3.70
2019-01-14T16:00:49.033Z,3.76
2019-01-14T16:03:17.033Z,3.80
2019-01-14T16:05:53.186Z,3.87
2019-01-14T16:08:22.349Z,3.94
2019-01-14T16:10:52.767Z,3.95
2019-01-14T16:13:24.703Z,4.01
2019-01-14T16:15:56.732Z,3.88
2019-01-14T16:18:28.567Z,3.85
2019-01-14T16:21:00.492Z,3.76
2019-01-14T16:23:31.159Z,3.68
2019-01-14T16:25:59.723Z,3.68
2019-01-14T16:28:28.231Z,3.73
2019-01-14T16:30:56.725Z,3.69
2019-01-14T16:33:25.176Z,3.62
2019-01-14T16:35:53.610Z,3.71
2019-01-14T16:38:22.059Z,3.72
2019-01-14T16:40:50.616Z,3.71
2019-01-14T16:43:20.254Z,3.78
2019-01-14T16:45:48.713Z,3.77
2019-01-14T16:48:17.248Z,3.78
2019-01-14T16:50:45.695Z,3.73
2019-01-14T16:53:14.180Z,3.68
2019-01-14T16:55:44.249Z,3.59
2019-01-14T16:58:12.753Z,3.53
2019-01-14T17:00:41.499Z,3.45
2019-01-14T17:03:10.198Z,3.41
2019-01-14T17:05:39.038Z,3.35
2019-01-14T17:08:07.547Z,3.30
2019-01-14T17:10:36.071Z,3.28
2019-01-14T17:13:04.758Z,3.34
2019-01-14T17:15:33.260Z,3.42
2019-01-14T17:18:01.739Z,3.27
2019-01-14T17:20:30.258Z,3.35
2019-01-14T17:22:58.716Z,3.42
2019-01-14T17:25:27.205Z,3.41
2019-01-14T17:27:55.647Z,3.47
2019-01-14T17:30:24.250Z,3.48
2019-01-14T17:32:53.614Z,3.58
2019-01-14T17:35:22.275Z,3.53
2019-01-14T17:37:50.831Z,3.55
2019-01-14T17:40:21.109Z,3.55
2019-01-14T17:42:49.747Z,3.56
2019-01-14T17:45:18.415Z,3.42
2019-01-14T17:47:47.421Z,3.42
2019-01-14T17:50:19.904Z,3.32
2019-01-14T17:52:48.778Z,3.31
2019-01-14T17:55:17.359Z,3.24
2019-01-14T17:57:47.375Z,3.17
2019-01-14T18:00:23.969Z,3.19
2019-01-14T18:02:52.703Z,3.08
2019-01-14T18:05:21.412Z,3.10
2019-01-14T18:07:50.217Z,3.06
2019-01-14T18:10:20.207Z,3.01
2019-01-14T18:12:48.909Z,2.98
2019-01-14T18:15:17.577Z,3.01
2019-01-14T18:17:46.139Z,2.96
2019-01-14T18:20:16.627Z,3.03
2019-01-14T18:22:45.135Z,2.97
2019-01-14T18:25:15.200Z,3.04
2019-01-14T18:27:43.764Z,3.14
2019-01-14T18:30:17.717Z,3.21
2019-01-14T18:32:46.367Z,3.21
2019-01-14T18:35:16.994Z,3.20
2019-01-14T18:37:45.719Z,3.08
2019-01-14T18:40:16.308Z,3.07
2019-01-14T18:42:45.165Z,2.92
2019-01-14T18:45:16.220Z,2.97
2019-01-14T18:47:44.761Z,2.88
2019-01-14T18:50:15.922Z,2.88
2019-01-14T18:52:44.380Z,2.98
2019-01-14T18:55:12.941Z,2.96
2019-01-14T18:57:41.704Z,3.02
2019-01-14T19:00:17.380Z,3.01
2019-01-14T19:02:46.203Z,3.02
2019-01-14T19:05:14.756Z,3.05
2019-01-14T19:07:44.818Z,3.01
2019-01-14T19:10:14.105Z,3.01
2019-01-14T19:12:42.702Z,3.05
2019-01-14T19:15:14.200Z,2.93
2019-01-14T19:17:42.700Z,2.97
2019-01-14T19:20:23.393Z,3.01
2019-01-14T19:22:51.893Z,3.06
2019-01-14T19:25:20.661Z,3.07
2019-01-14T19:27:49.180Z,3.08
2019-01-14T19:30:19.892Z,3.11
2019-01-14T19:32:48.515Z,3.17
2019-01-14T19:35:17.218Z,3.18
2019-01-14T19:37:47.028Z,3.23
2019-01-14T19:40:17.774Z,3.18
2019-01-14T19:42:46.344Z,3.14
2019-01-14T19:45:18.122Z,3.12
2019-01-14T19:47:46.794Z,3.16
2019-01-14T19:50:20.329Z,3.07
2019-01-14T19:52:48.854Z,3.04
2019-01-14T19:55:17.621Z,3.16
2019-01-14T19:57:46.183Z,3.09
2019-01-14T20:00:17.802Z,3.14
2019-01-14T20:02:46.236Z,3.10
2019-01-14T20:05:14.845Z,3.09
2019-01-14T20:07:43.327Z,3.07
2019-01-14T20:10:14.949Z,3.12
2019-01-14T20:12:43.743Z,3.14
2019-01-14T20:15:18.127Z,3.16
2019-01-14T20:17:46.546Z,3.17
2019-01-14T20:20:15.857Z,3.18
2019-01-14T20:22:44.559Z,3.20
2019-01-14T20:25:13.937Z,3.27
2019-01-14T20:27:44.270Z,3.34
2019-01-14T20:30:16.125Z,3.39
2019-01-14T20:32:44.728Z,3.37
2019-01-14T20:35:13.712Z,3.36
2019-01-14T20:37:43.975Z,3.35
2019-01-14T20:40:15.071Z,3.41
2019-01-14T20:42:47.053Z,3.36
2019-01-14T20:45:21.168Z,3.38
2019-01-14T20:47:49.747Z,3.48
2019-01-14T20:50:19.900Z,3.53
2019-01-14T20:52:48.511Z,3.52
2019-01-14T20:55:17.110Z,3.49
2019-01-14T20:57:45.835Z,3.51
2019-01-14T21:00:22.397Z,3.45
2019-01-14T21:02:50.804Z,3.53
2019-01-14T21:05:19.643Z,3.46
2019-01-14T21:07:48.226Z,3.36
2019-01-14T21:10:17.261Z,3.35
2019-01-14T21:12:45.823Z,3.38
2019-01-14T21:15:15.814Z,3.34
2019-01-14T21:17:44.345Z,3.30
2019-01-14T21:20:23.744Z,3.27
2019-01-14T21:22:52.697Z,3.32
2019-01-14T21:25:21.234Z,3.35
2019-01-14T21:27:49.818Z,3.28
2019-01-14T21:30:23.597Z,3.29
2019-01-14T21:32:52.171Z,3.27
2019-01-14T21:35:20.824Z,3.32
2019-01-14T21:37:50.630Z,3.35
2019-01-14T21:40:19.090Z,3.32
2019-01-14T21:42:47.598Z,3.33
2019-01-14T21:45:16.235Z,3.34
2019-01-14T21:47:44.763Z,3.38
2019-01-14T21:50:20.407Z,3.46
2019-01-14T21:52:49.010Z,3.48
2019-01-14T21:55:21.815Z,3.53
2019-01-14T21:57:50.335Z,3.53
2019-01-14T22:00:23.077Z,3.49
2019-01-14T22:02:51.648Z,3.47
2019-01-14T22:05:24.945Z,3.46
2019-01-14T22:10:41.465Z,3.44
2019-01-14T22:13:09.909Z,3.53
2019-01-14T22:15:38.362Z,3.58
2019-01-14T22:18:06.852Z,3.53
2019-01-14T22:20:35.395Z,3.55
2019-01-14T22:23:05.452Z,3.59
2019-01-14T22:25:33.934Z,3.58
2019-01-14T22:28:02.402Z,3.56
2019-01-14T22:30:31.621Z,3.58
2019-01-14T22:33:00.111Z,3.59
2019-01-14T22:35:28.643Z,3.62
2019-01-14T22:37:57.104Z,3.68
2019-01-14T22:40:25.612Z,3.72
2019-01-14T22:42:54.123Z,3.73
2019-01-14T22:45:22.712Z,3.79
2019-01-14T22:47:51.239Z,3.80
2019-01-14T22:50:19.835Z,3.82
2019-01-14T22:52:48.344Z,3.87
2019-01-14T22:55:16.780Z,3.83
2019-01-14T22:57:45.240Z,3.84
2019-01-14T23:00:24.501Z,3.86
2019-01-14T23:02:53.032Z,3.87
2019-01-14T23:05:21.559Z,3.95
2019-01-14T23:08:02.855Z,4.00
2019-01-14T23:10:30.792Z,3.98
2019-01-14T23:12:59.248Z,4.01
2019-01-14T23:15:27.774Z,4.02
2019-01-14T23:17:56.275Z,4.05
2019-01-14T23:20:24.786Z,4.01
2019-01-14T23:22:53.251Z,3.98
2019-01-14T23:25:21.749Z,4.01
2019-01-14T23:27:50.213Z,4.00
2019-01-14T23:30:20.831Z,3.95
2019-01-14T23:32:49.288Z,3.93
2019-01-14T23:35:17.542Z,4.00
2019-01-14T23:37:46.057Z,3.98
2019-01-14T23:40:14.682Z,4.00
2019-01-14T23:42:43.168Z,4.00
2019-01-14T23:45:11.758Z,3.98
2019-01-14T23:47:40.257Z,3.90
2019-01-14T23:50:09.524Z,3.95
2019-01-14T23:52:37.984Z,3.85
2019-01-14T23:55:06.948Z,3.86
2019-01-14T23:57:35.496Z,3.87
